M/V C0sta Favolosa — ICPK — position and weather

sailwx.info

Track history (hours):
 
Tides and Currents Weather Stations Pressure Air Temp Water Temp Dewpoint Dewpoint Depression Visibility Wind Speed Wind Dir Waves Ship Positions

M/V C0sta Favolosa

Last reported at 2017-Apr-25 01:58 UTC. Time now 2017-Apr-25 02:52 UTC.
Position N 42°41' E 004°45'.

Length 289 m; draft 8.3 m.

Type: Ship. MMSI: 247311100.

Date/timePositionNaut miles runAvg speedWind from/ knotsBaromVisibWave heightAir tempDewpointWater temp
2017-Apr-25 01:58N 42°41' E 004°45'612.4
2017-Apr-25 01:29N 42°36' E 004°40'2113.7
2017-Apr-24 23:58N 42°18' E 004°25'3819.1
2017-Apr-24 21:58N 41°46' E 003°59'918.7
2017-Apr-24 21:30N 41°38' E 003°53'2919.0
2017-Apr-24 19:59N 41°13' E 003°32'919.4
2017-Apr-24 19:30N 41°06' E 003°26'1019.9
2017-Apr-24 19:00N 40°57' E 003°19'1019.8
2017-Apr-24 18:30N 40°49' E 003°12'1020.0
2017-Apr-24 18:00N 40°40' E 003°05'1019.9
2017-Apr-24 17:30N 40°32' E 002°58'1019.6
2017-Apr-24 17:00N 40°24' E 002°51'1919.0
2017-Apr-24 15:59N 40°07' E 002°38'918.6
2017-Apr-24 15:30N 39°59' E 002°32'918.7
2017-Apr-24 15:00N 39°51' E 002°26'1218.4
2017-Apr-24 14:22N 39°41' E 002°19'1415.8
2017-Apr-24 13:30N 39°28' E 002°22'918.3
2017-Apr-24 13:00N 39°23' E 002°32'816.9
2017-Apr-24 12:30N 39°30' E 002°38'3 6.5
2017-Apr-24 12:00N 39°33' E 002°38'0 0.0
2017-Apr-24 11:30N 39°33' E 002°38'0 0.0
2017-Apr-24 11:00N 39°33' E 002°38'0 0.0
2017-Apr-24 10:30N 39°33' E 002°38'0 0.0
2017-Apr-24 09:59N 39°33' E 002°38'0 0.0
2017-Apr-24 09:30N 39°33' E 002°38'0 0.0
2017-Apr-24 09:00N 39°33' E 002°38'0 0.0
2017-Apr-24 08:29N 39°33' E 002°38'0 0.0
2017-Apr-24 07:58N 39°33' E 002°38'0 0.0
2017-Apr-24 07:28N 39°33' E 002°38'0 0.0
2017-Apr-24 07:00N 39°33' E 002°38'0 0.0
2017-Apr-24 06:30N 39°33' E 002°38'0 0.0
2017-Apr-24 06:00N 39°33' E 002°38'0 0.5
2017-Apr-24 05:30N 39°33' E 002°38'3 5.2
2017-Apr-24 05:00N 39°31' E 002°39'612.0
2017-Apr-24 04:31N 39°26' E 002°35'612.2
2017-Apr-24 04:00N 39°24' E 002°28'611.5
2017-Apr-24 03:30N 39°27' E 002°21'712.9
2017-Apr-24 03:00N 39°32' E 002°16'612.4
2017-Apr-24 02:30N 39°38' E 002°13'611.2
2017-Apr-24 02:00N 39°43' E 002°13'510.9
2017-Apr-24 01:30N 39°49' E 002°13'611.1
2017-Apr-24 01:01N 39°54' E 002°12'611.4
2017-Apr-24 00:30N 39°60' E 002°12'611.3
2017-Apr-24 00:00N 40°06' E 002°12'611.2
2017-Apr-23 23:30N 40°11' E 002°12'611.3
2017-Apr-23 23:01N 40°17' E 002°12'611.5
2017-Apr-23 22:30N 40°23' E 002°12'611.4
2017-Apr-23 22:00N 40°28' E 002°12'611.3
2017-Apr-23 21:30N 40°34' E 002°12'611.5
2017-Apr-23 21:01N 40°40' E 002°12'611.6
2017-Apr-23 20:30N 40°46' E 002°11'611.6
2017-Apr-23 20:00N 40°51' E 002°11'611.9
2017-Apr-23 19:30N 40°57' E 002°11'612.1
2017-Apr-23 19:00N 41°03' E 002°11'612.0
2017-Apr-23 18:30N 41°09' E 002°11'611.8
2017-Apr-23 18:00N 41°15' E 002°10'5 9.9
2017-Apr-23 17:30N 41°20' E 002°10'1 2.7
2017-Apr-23 16:58N 41°22' E 002°11'0 0.0
2017-Apr-23 16:16N 41°22' E 002°11'0 0.0
2017-Apr-23 15:58N 41°22' E 002°11'0 0.0
2017-Apr-23 15:28N 41°22' E 002°11'0 0.0
2017-Apr-23 13:58N 41°22' E 002°11'0 0.0
2017-Apr-23 13:28N 41°22' E 002°11'0 0.0
2017-Apr-23 12:58N 41°22' E 002°11'0 0.0
2017-Apr-23 12:28N 41°22' E 002°11'0 0.0
2017-Apr-23 11:37N 41°22' E 002°11'0 0.2
2017-Apr-23 11:30N 41°22' E 002°11'1 1.9
2017-Apr-23 10:59N 41°21' E 002°10'3 5.8
2017-Apr-23 10:27N 41°18' E 002°11'511.3
2017-Apr-23 10:00N 41°15' E 002°17'815.7
2017-Apr-23 09:30N 41°18' E 002°26'917.5
2017-Apr-23 09:00N 41°22' E 002°37'917.6
2017-Apr-23 08:30N 41°26' E 002°47'917.8
2017-Apr-23 08:00N 41°30' E 002°58'918.0
2017-Apr-23 07:30N 41°35' E 003°08'918.2
2017-Apr-23 07:00N 41°39' E 003°19'918.4
2017-Apr-23 06:30N 41°43' E 003°30'1019.0
2017-Apr-23 06:00N 41°48' E 003°41'918.5
2017-Apr-23 05:30N 41°52' E 003°52'918.3
2017-Apr-23 05:01N 41°56' E 004°03'918.4
2017-Apr-23 04:31N 42°01' E 004°14'918.3
2017-Apr-23 04:00N 42°05' E 004°25'7118.2
2017-Apr-23 00:06N 42°39' E 005°49'7117.7
2017-Apr-22 20:03N 43°17' E 007°12'117.1
2017-Apr-22 20:00N 43°17' E 007°13'817.0
2017-Apr-22 19:30N 43°23' E 007°22'917.0
2017-Apr-22 18:58N 43°28' E 007°32'916.9
2017-Apr-22 18:26N 43°34' E 007°42'1017.4
2017-Apr-22 17:53N 43°39' E 007°53'1617.5
2017-Apr-22 16:57N 43°49' E 008°11'817.6
2017-Apr-22 16:30N 43°54' E 008°19'918.3
2017-Apr-22 16:00N 44°02' E 008°25'918.7
2017-Apr-22 15:30N 44°10' E 008°31'815.2
2017-Apr-22 15:00N 44°18' E 008°32'2 3.8
2017-Apr-22 14:30N 44°19' E 008°30'0 0.0
2017-Apr-22 13:26N 44°19' E 008°30'0 0.0
2017-Apr-22 12:59N 44°19' E 008°30'0 0.0
2017-Apr-22 12:30N 44°19' E 008°30'0 0.0
2017-Apr-22 12:00N 44°19' E 008°30'0 0.0
2017-Apr-22 11:30N 44°19' E 008°30'0 0.0
2017-Apr-22 11:00N 44°19' E 008°30'0 0.0
2017-Apr-22 10:30N 44°19' E 008°30'0 0.0
2017-Apr-22 10:00N 44°19' E 008°30'0 0.0
2017-Apr-22 09:30N 44°19' E 008°30'0 0.0
2017-Apr-22 09:00N 44°19' E 008°30'0 0.0
2017-Apr-22 08:30N 44°19' E 008°30'0 0.0
2017-Apr-22 08:00N 44°19' E 008°30'0 0.0
2017-Apr-22 07:30N 44°19' E 008°30'0 0.0
2017-Apr-22 07:00N 44°19' E 008°30'0 0.0
2017-Apr-22 06:30N 44°19' E 008°30'1 1.7
2017-Apr-22 06:00N 44°19' E 008°31'4 7.6
2017-Apr-22 05:30N 44°16' E 008°33'816.8
2017-Apr-22 05:01N 44°08' E 008°30'918.3
2017-Apr-22 04:31N 43°60' E 008°24'714.0
2017-Apr-22 04:01N 43°54' E 008°19'1312.5
2017-Apr-22 02:57N 43°46' E 008°04'612.7
2017-Apr-22 02:28N 43°42' E 007°58'812.6
2017-Apr-22 01:52N 43°37' E 007°49'412.6
2017-Apr-22 01:31N 43°35' E 007°44'612.5
2017-Apr-22 01:00N 43°31' E 007°37'712.7
2017-Apr-22 00:28N 43°27' E 007°30'612.4
2017-Apr-22 00:00N 43°23' E 007°23'612.3
2017-Apr-21 23:31N 43°20' E 007°17'712.3
2017-Apr-21 22:57N 43°15' E 007°09'612.5
2017-Apr-21 22:30N 43°12' E 007°03'712.7
2017-Apr-21 21:57N 43°08' E 006°55'1712.1
2017-Apr-21 20:32N 42°58' E 006°36'2312.6
2017-Apr-21 18:43N 42°54' E 006°06'619.1
2017-Apr-21 18:25N 42°55' E 005°58'2518.6
2017-Apr-21 17:04N 43°04' E 005°26'1018.8
2017-Apr-21 16:34N 43°08' E 005°14'118.3
2017-Apr-21 16:30N 43°09' E 005°13'816.0
2017-Apr-21 16:00N 43°16' E 005°09'815.1
2017-Apr-21 15:30N 43°21' E 005°17'2 1.1
2017-Apr-21 13:54N 43°21' E 005°20'0 0.0
2017-Apr-21 13:24N 43°21' E 005°20'0 0.0
2017-Apr-21 12:09N 43°21' E 005°20'0 0.0
2017-Apr-21 11:39N 43°21' E 005°20'0 0.0
2017-Apr-21 11:27N 43°21' E 005°20'0 0.0
2017-Apr-21 10:57N 43°21' E 005°20'0 0.0
2017-Apr-21 10:27N 43°21' E 005°20'0 0.0
2017-Apr-21 09:57N 43°21' E 005°20'0 0.0
2017-Apr-21 08:27N 43°21' E 005°20'0 0.0
2017-Apr-21 07:45N 43°21' E 005°20'0 0.0
2017-Apr-21 07:30N 43°21' E 005°20'0 0.0
2017-Apr-21 07:00N 43°21' E 005°20'0 0.1
2017-Apr-21 06:28N 43°21' E 005°20'2 3.3
2017-Apr-21 06:00N 43°21' E 005°18'5 9.1
2017-Apr-21 05:30N 43°18' E 005°13'611.1
2017-Apr-21 05:00N 43°13' E 005°10'612.1
2017-Apr-21 04:29N 43°08' E 005°05'2712.1
2017-Apr-21 02:14N 42°48' E 004°39'13815.4
2017-Apr-20 17:13N 41°18' E 002°17'513.4
2017-Apr-20 16:51N 41°16' E 002°11'5 2.1
2017-Apr-20 14:34N 41°21' E 002°10'0 0.0
2017-Apr-20 14:16N 41°21' E 002°10'25513.8
2017-Apr-19 19:46N 43°05' E 007°26'1720.1
2017-Apr-19 18:55N 43°19' E 007°40'820.0
2017-Apr-19 18:30N 43°25' E 007°47'1120.1
2017-Apr-19 17:58N 43°34' E 007°57'1020.5
2017-Apr-19 17:30N 43°41' E 008°05'1021.0
2017-Apr-19 17:00N 43°49' E 008°14'1121.2
2017-Apr-19 16:30N 43°58' E 008°22'1121.4
2017-Apr-19 16:00N 44°07' E 008°29'918.8
2017-Apr-19 15:30N 44°16' E 008°33'4 7.3
2017-Apr-19 15:00N 44°19' E 008°30'1 1.5
2017-Apr-19 14:30N 44°19' E 008°29'0 0.0
2017-Apr-19 13:30N 44°19' E 008°29'0 0.0
2017-Apr-19 13:00N 44°19' E 008°29'0 0.0
2017-Apr-19 12:30N 44°19' E 008°29'0 0.0
2017-Apr-19 12:00N 44°19' E 008°29'0 0.0
2017-Apr-19 11:30N 44°19' E 008°29'0 0.0
2017-Apr-19 11:00N 44°19' E 008°29'0 0.0
2017-Apr-19 10:30N 44°19' E 008°29'0 0.0
2017-Apr-19 09:59N 44°19' E 008°29'0 0.0
2017-Apr-19 09:28N 44°19' E 008°29'0 0.0
2017-Apr-19 08:58N 44°19' E 008°29'0 0.0
2017-Apr-19 08:28N 44°19' E 008°29'0 0.0
2017-Apr-19 07:58N 44°19' E 008°29'0 0.0
2017-Apr-19 07:28N 44°19' E 008°29'0 0.0
2017-Apr-19 07:00N 44°19' E 008°29'0 0.1
2017-Apr-19 06:30N 44°19' E 008°29'2 3.2
2017-Apr-19 06:00N 44°19' E 008°32'4 8.9
2017-Apr-19 05:30N 44°14' E 008°34'917.3
2017-Apr-19 05:00N 44°07' E 008°28'917.6
2017-Apr-19 04:30N 43°59' E 008°22'2717.3
2017-Apr-19 02:57N 43°40' E 007°55'919.1
2017-Apr-19 02:28N 43°35' E 007°45'918.6
2017-Apr-19 02:00N 43°30' E 007°35'1018.7
2017-Apr-19 01:27N 43°24' E 007°24'818.4
2017-Apr-19 01:00N 43°19' E 007°15'8916.6
2017-Apr-18 19:39N 43°09' E 005°13'319.6
2017-Apr-18 19:30N 43°10' E 005°10'917.3
2017-Apr-18 19:00N 43°18' E 005°14'4 8.9
2017-Apr-18 18:30N 43°21' E 005°20'0 0.0
2017-Apr-18 18:00N 43°21' E 005°20'0 0.0
2017-Apr-18 17:27N 43°21' E 005°20'0 0.0
2017-Apr-18 17:00N 43°21' E 005°20'0 0.0
2017-Apr-18 16:24N 43°21' E 005°20'0 0.0
2017-Apr-18 15:42N 43°21' E 005°20'0 0.0
2017-Apr-18 15:27N 43°21' E 005°20'0 0.0
2017-Apr-18 15:00N 43°21' E 005°20'0 0.0
2017-Apr-18 14:00N 43°21' E 005°20'0 0.0
2017-Apr-18 13:30N 43°21' E 005°20'0 0.0
2017-Apr-18 12:54N 43°21' E 005°20'0 0.0
2017-Apr-18 12:30N 43°21' E 005°20'0 0.0
2017-Apr-18 11:57N 43°21' E 005°20'0 0.0
2017-Apr-18 11:30N 43°21' E 005°20'0 0.0
2017-Apr-18 10:57N 43°21' E 005°20'0 0.0
2017-Apr-18 10:27N 43°21' E 005°20'0 0.0
2017-Apr-18 10:00N 43°21' E 005°20'0 0.0
2017-Apr-18 09:27N 43°21' E 005°20'0 0.0
2017-Apr-18 08:57N 43°21' E 005°20'0 0.0
2017-Apr-18 08:27N 43°21' E 005°20'0 0.0
2017-Apr-18 07:57N 43°21' E 005°20'0 0.0
2017-Apr-18 07:30N 43°21' E 005°20'0 0.0
2017-Apr-18 06:54N 43°21' E 005°20'0 0.0
2017-Apr-18 06:30N 43°21' E 005°20'0 0.0
2017-Apr-18 06:00N 43°21' E 005°20'0 0.0
2017-Apr-18 05:30N 43°21' E 005°20'0 0.0
2017-Apr-18 04:57N 43°21' E 005°20'0 0.4
2017-Apr-18 04:30N 43°21' E 005°20'3 6.6
2017-Apr-18 04:00N 43°19' E 005°16'612.0
2017-Apr-18 03:30N 43°15' E 005°10'916.1
2017-Apr-18 02:56N 43°06' E 005°05'2217.3
2017-Apr-18 01:39N 42°47' E 004°50'1317.5
2017-Apr-18 00:55N 42°36' E 004°41'5117.9
2017-Apr-17 22:05N 41°53' E 004°05'218.5
2017-Apr-17 21:59N 41°51' E 004°04'1918.7
2017-Apr-17 20:57N 41°35' E 003°50'4218.8
2017-Apr-17 18:42N 40°59' E 003°21'519.1
2017-Apr-17 18:28N 40°55' E 003°18'919.1
2017-Apr-17 18:00N 40°47' E 003°11'1020.1
2017-Apr-17 17:30N 40°39' E 003°04'1121.3
2017-Apr-17 17:00N 40°30' E 002°57'1121.3
2017-Apr-17 16:30N 40°21' E 002°50'1020.8
2017-Apr-17 16:00N 40°12' E 002°43'1121.0
2017-Apr-17 15:30N 40°03' E 002°36'1020.8
2017-Apr-17 15:00N 39°54' E 002°29'2120.8
2017-Apr-17 14:00N 39°36' E 002°15'1019.8
2017-Apr-17 13:30N 39°28' E 002°22'918.9
2017-Apr-17 13:00N 39°23' E 002°32'917.8
2017-Apr-17 12:30N 39°31' E 002°39'2 4.1
2017-Apr-17 12:00N 39°33' E 002°38'0 0.0
2017-Apr-17 11:30N 39°33' E 002°38'0 0.0
2017-Apr-17 10:59N 39°33' E 002°38'0 0.0
2017-Apr-17 10:29N 39°33' E 002°38'0 0.0
2017-Apr-17 09:58N 39°33' E 002°38'0 0.0
2017-Apr-17 09:28N 39°33' E 002°38'0 0.0
2017-Apr-17 08:58N 39°33' E 002°38'0 0.0
2017-Apr-17 08:28N 39°33' E 002°38'0 0.0
2017-Apr-17 07:58N 39°33' E 002°38'0 0.0
2017-Apr-17 07:28N 39°33' E 002°38'0 0.0
2017-Apr-17 06:58N 39°33' E 002°38'0 0.0
2017-Apr-17 06:30N 39°33' E 002°38'0 0.0
2017-Apr-17 05:59N 39°33' E 002°38'0 0.0
2017-Apr-17 05:30N 39°33' E 002°38'1 1.2
2017-Apr-17 05:00N 39°33' E 002°39'3 6.0
2017-Apr-17 04:30N 39°30' E 002°39'611.3
2017-Apr-17 04:00N 39°25' E 002°35'511.1
2017-Apr-17 03:30N 39°24' E 002°28'612.0
2017-Apr-17 03:00N 39°28' E 002°22'612.0
2017-Apr-17 02:30N 39°32' E 002°16'611.6
2017-Apr-17 02:00N 39°37' E 002°13'611.9
2017-Apr-17 01:29N 39°43' E 002°13'611.8
2017-Apr-17 01:00N 39°49' E 002°13'611.7
2017-Apr-17 00:30N 39°54' E 002°13'611.6
2017-Apr-17 00:00N 40°00' E 002°15'612.1
2017-Apr-16 23:30N 40°06' E 002°13'612.4
2017-Apr-16 23:00N 40°12' E 002°12'612.6
2017-Apr-16 22:30N 40°18' E 002°11'612.5
2017-Apr-16 22:00N 40°25' E 002°11'612.5
2017-Apr-16 21:30N 40°31' E 002°11'612.3
2017-Apr-16 21:00N 40°37' E 002°12'611.9
2017-Apr-16 20:30N 40°43' E 002°11'611.5
2017-Apr-16 20:00N 40°49' E 002°11'611.8
2017-Apr-16 19:30N 40°55' E 002°11'612.0
2017-Apr-16 19:00N 41°01' E 002°11'612.4
2017-Apr-16 18:30N 41°07' E 002°11'612.2
2017-Apr-16 18:00N 41°13' E 002°11'611.9
2017-Apr-16 17:30N 41°19' E 002°10'3 5.5
2017-Apr-16 17:01N 41°22' E 002°11'0 0.0
2017-Apr-16 16:28N 41°22' E 002°11'0 0.0
2017-Apr-16 15:58N 41°22' E 002°11'0 0.0
2017-Apr-16 15:28N 41°22' E 002°11'0 0.0
2017-Apr-16 14:58N 41°22' E 002°11'0 0.0
2017-Apr-16 14:28N 41°22' E 002°11'0 0.0
2017-Apr-16 12:46N 41°22' E 002°11'0 0.0
2017-Apr-16 12:28N 41°22' E 002°11'0 0.0
2017-Apr-16 11:58N 41°22' E 002°11'0 0.0
2017-Apr-16 11:28N 41°22' E 002°11'1 1.2
2017-Apr-16 11:01N 41°21' E 002°10'3 4.6
2017-Apr-16 10:27N 41°19' E 002°10'710.9
2017-Apr-16 09:48N 41°15' E 002°19'818.5
2017-Apr-16 09:22N 41°19' E 002°28'718.4
2017-Apr-16 09:00N 41°23' E 002°36'23518.6
2017-Apr-15 20:20N 43°18' E 007°13'919.6
2017-Apr-15 19:53N 43°23' E 007°23'919.8
2017-Apr-15 19:25N 43°28' E 007°33'919.6
2017-Apr-15 18:59N 43°34' E 007°43'2619.4
2017-Apr-15 17:39N 43°49' E 008°11'319.5
2017-Apr-15 17:30N 43°51' E 008°14'919.2
2017-Apr-15 17:00N 43°58' E 008°22'1019.0
2017-Apr-15 16:30N 44°07' E 008°29'917.9
2017-Apr-15 16:00N 44°15' E 008°34'510.2
2017-Apr-15 15:30N 44°19' E 008°30'1 1.5
2017-Apr-15 14:58N 44°19' E 008°29'0 0.0
2017-Apr-15 14:28N 44°19' E 008°29'0 0.0
2017-Apr-15 13:28N 44°19' E 008°29'0 0.0
2017-Apr-15 12:58N 44°19' E 008°29'0 0.0
2017-Apr-15 12:28N 44°19' E 008°29'0 0.0
2017-Apr-15 11:55N 44°19' E 008°29'0 0.0
2017-Apr-15 11:28N 44°19' E 008°29'0 0.0
2017-Apr-15 10:58N 44°19' E 008°29'0 0.0
2017-Apr-15 10:28N 44°19' E 008°29'0 0.0
2017-Apr-15 09:58N 44°19' E 008°29'0 0.0
2017-Apr-15 09:25N 44°19' E 008°29'0 0.0
2017-Apr-15 08:55N 44°19' E 008°29'0 0.0
2017-Apr-15 08:28N 44°19' E 008°29'0 0.0
2017-Apr-15 07:58N 44°19' E 008°29'0 0.0
2017-Apr-15 07:25N 44°19' E 008°29'0 0.0
2017-Apr-15 06:55N 44°19' E 008°29'0 0.0
2017-Apr-15 06:27N 44°19' E 008°29'0 0.0
2017-Apr-15 06:01N 44°19' E 008°29'0 0.6
2017-Apr-15 05:30N 44°19' E 008°30'2 3.8
2017-Apr-15 05:00N 44°18' E 008°32'510.1
2017-Apr-15 04:30N 44°13' E 008°33'612.8
2017-Apr-15 04:00N 44°07' E 008°29'612.5
2017-Apr-15 03:30N 44°02' E 008°25'612.2
2017-Apr-15 02:59N 43°56' E 008°20'  
Track history (hours):
 
Tides and Currents Weather Stations Pressure Air Temp Water Temp Dewpoint Dewpoint Depression Visibility Wind Speed Wind Dir Waves Ship Positions

M/V C0sta Favolosa

Last reported at 2017-Apr-25 01:58 UTC. Time now 2017-Apr-25 02:52 UTC.
Position N 42°41' E 004°45'.

Length 289 m; draft 8.3 m.

Type: Ship. MMSI: 247311100.

Date/timePositionNaut miles runAvg speedWind from/ knotsBaromVisibWave heightAir tempDewpointWater temp
2017-Apr-25 01:58N 42°41' E 004°45'612.4
2017-Apr-25 01:29N 42°36' E 004°40'2113.7
2017-Apr-24 23:58N 42°18' E 004°25'3819.1
2017-Apr-24 21:58N 41°46' E 003°59'918.7
2017-Apr-24 21:30N 41°38' E 003°53'2919.0
2017-Apr-24 19:59N 41°13' E 003°32'919.4
2017-Apr-24 19:30N 41°06' E 003°26'1019.9
2017-Apr-24 19:00N 40°57' E 003°19'1019.8
2017-Apr-24 18:30N 40°49' E 003°12'1020.0
2017-Apr-24 18:00N 40°40' E 003°05'1019.9
2017-Apr-24 17:30N 40°32' E 002°58'1019.6
2017-Apr-24 17:00N 40°24' E 002°51'1919.0
2017-Apr-24 15:59N 40°07' E 002°38'918.6
2017-Apr-24 15:30N 39°59' E 002°32'918.7
2017-Apr-24 15:00N 39°51' E 002°26'1218.4
2017-Apr-24 14:22N 39°41' E 002°19'1415.8
2017-Apr-24 13:30N 39°28' E 002°22'918.3
2017-Apr-24 13:00N 39°23' E 002°32'816.9
2017-Apr-24 12:30N 39°30' E 002°38'3 6.5
2017-Apr-24 12:00N 39°33' E 002°38'0 0.0
2017-Apr-24 11:30N 39°33' E 002°38'0 0.0
2017-Apr-24 11:00N 39°33' E 002°38'0 0.0
2017-Apr-24 10:30N 39°33' E 002°38'0 0.0
2017-Apr-24 09:59N 39°33' E 002°38'0 0.0
2017-Apr-24 09:30N 39°33' E 002°38'0 0.0
2017-Apr-24 09:00N 39°33' E 002°38'0 0.0
2017-Apr-24 08:29N 39°33' E 002°38'0 0.0
2017-Apr-24 07:58N 39°33' E 002°38'0 0.0
2017-Apr-24 07:28N 39°33' E 002°38'0 0.0
2017-Apr-24 07:00N 39°33' E 002°38'0 0.0
2017-Apr-24 06:30N 39°33' E 002°38'0 0.0
2017-Apr-24 06:00N 39°33' E 002°38'0 0.5
2017-Apr-24 05:30N 39°33' E 002°38'3 5.2
2017-Apr-24 05:00N 39°31' E 002°39'612.0
2017-Apr-24 04:31N 39°26' E 002°35'612.2
2017-Apr-24 04:00N 39°24' E 002°28'611.5
2017-Apr-24 03:30N 39°27' E 002°21'712.9
2017-Apr-24 03:00N 39°32' E 002°16'612.4
2017-Apr-24 02:30N 39°38' E 002°13'611.2
2017-Apr-24 02:00N 39°43' E 002°13'510.9
2017-Apr-24 01:30N 39°49' E 002°13'611.1
2017-Apr-24 01:01N 39°54' E 002°12'611.4
2017-Apr-24 00:30N 39°60' E 002°12'611.3
2017-Apr-24 00:00N 40°06' E 002°12'611.2
2017-Apr-23 23:30N 40°11' E 002°12'611.3
2017-Apr-23 23:01N 40°17' E 002°12'611.5
2017-Apr-23 22:30N 40°23' E 002°12'611.4
2017-Apr-23 22:00N 40°28' E 002°12'611.3
2017-Apr-23 21:30N 40°34' E 002°12'611.5
2017-Apr-23 21:01N 40°40' E 002°12'611.6
2017-Apr-23 20:30N 40°46' E 002°11'611.6
2017-Apr-23 20:00N 40°51' E 002°11'611.9
2017-Apr-23 19:30N 40°57' E 002°11'612.1
2017-Apr-23 19:00N 41°03' E 002°11'612.0
2017-Apr-23 18:30N 41°09' E 002°11'611.8
2017-Apr-23 18:00N 41°15' E 002°10'5 9.9
2017-Apr-23 17:30N 41°20' E 002°10'1 2.7
2017-Apr-23 16:58N 41°22' E 002°11'0 0.0
2017-Apr-23 16:16N 41°22' E 002°11'0 0.0
2017-Apr-23 15:58N 41°22' E 002°11'0 0.0
2017-Apr-23 15:28N 41°22' E 002°11'0 0.0
2017-Apr-23 13:58N 41°22' E 002°11'0 0.0
2017-Apr-23 13:28N 41°22' E 002°11'0 0.0
2017-Apr-23 12:58N 41°22' E 002°11'0 0.0
2017-Apr-23 12:28N 41°22' E 002°11'0 0.0
2017-Apr-23 11:37N 41°22' E 002°11'0 0.2
2017-Apr-23 11:30N 41°22' E 002°11'1 1.9
2017-Apr-23 10:59N 41°21' E 002°10'3 5.8
2017-Apr-23 10:27N 41°18' E 002°11'511.3
2017-Apr-23 10:00N 41°15' E 002°17'815.7
2017-Apr-23 09:30N 41°18' E 002°26'917.5
2017-Apr-23 09:00N 41°22' E 002°37'917.6
2017-Apr-23 08:30N 41°26' E 002°47'917.8
2017-Apr-23 08:00N 41°30' E 002°58'918.0
2017-Apr-23 07:30N 41°35' E 003°08'918.2
2017-Apr-23 07:00N 41°39' E 003°19'918.4
2017-Apr-23 06:30N 41°43' E 003°30'1019.0
2017-Apr-23 06:00N 41°48' E 003°41'918.5
2017-Apr-23 05:30N 41°52' E 003°52'918.3
2017-Apr-23 05:01N 41°56' E 004°03'918.4
2017-Apr-23 04:31N 42°01' E 004°14'918.3
2017-Apr-23 04:00N 42°05' E 004°25'7118.2
2017-Apr-23 00:06N 42°39' E 005°49'7117.7
2017-Apr-22 20:03N 43°17' E 007°12'117.1
2017-Apr-22 20:00N 43°17' E 007°13'817.0
2017-Apr-22 19:30N 43°23' E 007°22'917.0
2017-Apr-22 18:58N 43°28' E 007°32'916.9
2017-Apr-22 18:26N 43°34' E 007°42'1017.4
2017-Apr-22 17:53N 43°39' E 007°53'1617.5
2017-Apr-22 16:57N 43°49' E 008°11'817.6
2017-Apr-22 16:30N 43°54' E 008°19'918.3
2017-Apr-22 16:00N 44°02' E 008°25'918.7
2017-Apr-22 15:30N 44°10' E 008°31'815.2
2017-Apr-22 15:00N 44°18' E 008°32'2 3.8
2017-Apr-22 14:30N 44°19' E 008°30'0 0.0
2017-Apr-22 13:26N 44°19' E 008°30'0 0.0
2017-Apr-22 12:59N 44°19' E 008°30'0 0.0
2017-Apr-22 12:30N 44°19' E 008°30'0 0.0
2017-Apr-22 12:00N 44°19' E 008°30'0 0.0
2017-Apr-22 11:30N 44°19' E 008°30'0 0.0
2017-Apr-22 11:00N 44°19' E 008°30'0 0.0
2017-Apr-22 10:30N 44°19' E 008°30'0 0.0
2017-Apr-22 10:00N 44°19' E 008°30'0 0.0
2017-Apr-22 09:30N 44°19' E 008°30'0 0.0
2017-Apr-22 09:00N 44°19' E 008°30'0 0.0
2017-Apr-22 08:30N 44°19' E 008°30'0 0.0
2017-Apr-22 08:00N 44°19' E 008°30'0 0.0
2017-Apr-22 07:30N 44°19' E 008°30'0 0.0
2017-Apr-22 07:00N 44°19' E 008°30'0 0.0
2017-Apr-22 06:30N 44°19' E 008°30'1 1.7
2017-Apr-22 06:00N 44°19' E 008°31'4 7.6
2017-Apr-22 05:30N 44°16' E 008°33'816.8
2017-Apr-22 05:01N 44°08' E 008°30'918.3
2017-Apr-22 04:31N 43°60' E 008°24'714.0
2017-Apr-22 04:01N 43°54' E 008°19'1312.5
2017-Apr-22 02:57N 43°46' E 008°04'612.7
2017-Apr-22 02:28N 43°42' E 007°58'812.6
2017-Apr-22 01:52N 43°37' E 007°49'412.6
2017-Apr-22 01:31N 43°35' E 007°44'612.5
2017-Apr-22 01:00N 43°31' E 007°37'712.7
2017-Apr-22 00:28N 43°27' E 007°30'612.4
2017-Apr-22 00:00N 43°23' E 007°23'612.3
2017-Apr-21 23:31N 43°20' E 007°17'712.3
2017-Apr-21 22:57N 43°15' E 007°09'612.5
2017-Apr-21 22:30N 43°12' E 007°03'712.7
2017-Apr-21 21:57N 43°08' E 006°55'1712.1
2017-Apr-21 20:32N 42°58' E 006°36'2312.6
2017-Apr-21 18:43N 42°54' E 006°06'619.1
2017-Apr-21 18:25N 42°55' E 005°58'2518.6
2017-Apr-21 17:04N 43°04' E 005°26'1018.8
2017-Apr-21 16:34N 43°08' E 005°14'118.3
2017-Apr-21 16:30N 43°09' E 005°13'816.0
2017-Apr-21 16:00N 43°16' E 005°09'815.1
2017-Apr-21 15:30N 43°21' E 005°17'2 1.1
2017-Apr-21 13:54N 43°21' E 005°20'0 0.0
2017-Apr-21 13:24N 43°21' E 005°20'0 0.0
2017-Apr-21 12:09N 43°21' E 005°20'0 0.0
2017-Apr-21 11:39N 43°21' E 005°20'0 0.0
2017-Apr-21 11:27N 43°21' E 005°20'0 0.0
2017-Apr-21 10:57N 43°21' E 005°20'0 0.0
2017-Apr-21 10:27N 43°21' E 005°20'0 0.0
2017-Apr-21 09:57N 43°21' E 005°20'0 0.0
2017-Apr-21 08:27N 43°21' E 005°20'0 0.0
2017-Apr-21 07:45N 43°21' E 005°20'0 0.0
2017-Apr-21 07:30N 43°21' E 005°20'0 0.0
2017-Apr-21 07:00N 43°21' E 005°20'0 0.1
2017-Apr-21 06:28N 43°21' E 005°20'2 3.3
2017-Apr-21 06:00N 43°21' E 005°18'5 9.1
2017-Apr-21 05:30N 43°18' E 005°13'611.1
2017-Apr-21 05:00N 43°13' E 005°10'612.1
2017-Apr-21 04:29N 43°08' E 005°05'2712.1
2017-Apr-21 02:14N 42°48' E 004°39'13815.4
2017-Apr-20 17:13N 41°18' E 002°17'513.4
2017-Apr-20 16:51N 41°16' E 002°11'5 2.1
2017-Apr-20 14:34N 41°21' E 002°10'0 0.0
2017-Apr-20 14:16N 41°21' E 002°10'25513.8
2017-Apr-19 19:46N 43°05' E 007°26'1720.1
2017-Apr-19 18:55N 43°19' E 007°40'820.0
2017-Apr-19 18:30N 43°25' E 007°47'1120.1
2017-Apr-19 17:58N 43°34' E 007°57'1020.5
2017-Apr-19 17:30N 43°41' E 008°05'1021.0
2017-Apr-19 17:00N 43°49' E 008°14'1121.2
2017-Apr-19 16:30N 43°58' E 008°22'1121.4
2017-Apr-19 16:00N 44°07' E 008°29'918.8
2017-Apr-19 15:30N 44°16' E 008°33'4 7.3
2017-Apr-19 15:00N 44°19' E 008°30'1 1.5
2017-Apr-19 14:30N 44°19' E 008°29'0 0.0
2017-Apr-19 13:30N 44°19' E 008°29'0 0.0
2017-Apr-19 13:00N 44°19' E 008°29'0 0.0
2017-Apr-19 12:30N 44°19' E 008°29'0 0.0
2017-Apr-19 12:00N 44°19' E 008°29'0 0.0
2017-Apr-19 11:30N 44°19' E 008°29'0 0.0
2017-Apr-19 11:00N 44°19' E 008°29'0 0.0
2017-Apr-19 10:30N 44°19' E 008°29'0 0.0
2017-Apr-19 09:59N 44°19' E 008°29'0 0.0
2017-Apr-19 09:28N 44°19' E 008°29'0 0.0
2017-Apr-19 08:58N 44°19' E 008°29'0 0.0
2017-Apr-19 08:28N 44°19' E 008°29'0 0.0
2017-Apr-19 07:58N 44°19' E 008°29'0 0.0
2017-Apr-19 07:28N 44°19' E 008°29'0 0.0
2017-Apr-19 07:00N 44°19' E 008°29'0 0.1
2017-Apr-19 06:30N 44°19' E 008°29'2 3.2
2017-Apr-19 06:00N 44°19' E 008°32'4 8.9
2017-Apr-19 05:30N 44°14' E 008°34'917.3
2017-Apr-19 05:00N 44°07' E 008°28'917.6
2017-Apr-19 04:30N 43°59' E 008°22'2717.3
2017-Apr-19 02:57N 43°40' E 007°55'919.1
2017-Apr-19 02:28N 43°35' E 007°45'918.6
2017-Apr-19 02:00N 43°30' E 007°35'1018.7
2017-Apr-19 01:27N 43°24' E 007°24'818.4
2017-Apr-19 01:00N 43°19' E 007°15'8916.6
2017-Apr-18 19:39N 43°09' E 005°13'319.6
2017-Apr-18 19:30N 43°10' E 005°10'917.3
2017-Apr-18 19:00N 43°18' E 005°14'4 8.9
2017-Apr-18 18:30N 43°21' E 005°20'0 0.0
2017-Apr-18 18:00N 43°21' E 005°20'0 0.0
2017-Apr-18 17:27N 43°21' E 005°20'0 0.0
2017-Apr-18 17:00N 43°21' E 005°20'0 0.0
2017-Apr-18 16:24N 43°21' E 005°20'0 0.0
2017-Apr-18 15:42N 43°21' E 005°20'0 0.0
2017-Apr-18 15:27N 43°21' E 005°20'0 0.0
2017-Apr-18 15:00N 43°21' E 005°20'0 0.0
2017-Apr-18 14:00N 43°21' E 005°20'0 0.0
2017-Apr-18 13:30N 43°21' E 005°20'0 0.0
2017-Apr-18 12:54N 43°21' E 005°20'0 0.0
2017-Apr-18 12:30N 43°21' E 005°20'0 0.0
2017-Apr-18 11:57N 43°21' E 005°20'0 0.0
2017-Apr-18 11:30N 43°21' E 005°20'0 0.0
2017-Apr-18 10:57N 43°21' E 005°20'0 0.0
2017-Apr-18 10:27N 43°21' E 005°20'0 0.0
2017-Apr-18 10:00N 43°21' E 005°20'0 0.0
2017-Apr-18 09:27N 43°21' E 005°20'0 0.0
2017-Apr-18 08:57N 43°21' E 005°20'0 0.0
2017-Apr-18 08:27N 43°21' E 005°20'0 0.0
2017-Apr-18 07:57N 43°21' E 005°20'0 0.0
2017-Apr-18 07:30N 43°21' E 005°20'0 0.0
2017-Apr-18 06:54N 43°21' E 005°20'0 0.0
2017-Apr-18 06:30N 43°21' E 005°20'0 0.0
2017-Apr-18 06:00N 43°21' E 005°20'0 0.0
2017-Apr-18 05:30N 43°21' E 005°20'0 0.0
2017-Apr-18 04:57N 43°21' E 005°20'0 0.4
2017-Apr-18 04:30N 43°21' E 005°20'3 6.6
2017-Apr-18 04:00N 43°19' E 005°16'612.0
2017-Apr-18 03:30N 43°15' E 005°10'916.1
2017-Apr-18 02:56N 43°06' E 005°05'2217.3
2017-Apr-18 01:39N 42°47' E 004°50'1317.5
2017-Apr-18 00:55N 42°36' E 004°41'5117.9
2017-Apr-17 22:05N 41°53' E 004°05'218.5
2017-Apr-17 21:59N 41°51' E 004°04'1918.7
2017-Apr-17 20:57N 41°35' E 003°50'4218.8
2017-Apr-17 18:42N 40°59' E 003°21'519.1
2017-Apr-17 18:28N 40°55' E 003°18'919.1
2017-Apr-17 18:00N 40°47' E 003°11'1020.1
2017-Apr-17 17:30N 40°39' E 003°04'1121.3
2017-Apr-17 17:00N 40°30' E 002°57'1121.3
2017-Apr-17 16:30N 40°21' E 002°50'1020.8
2017-Apr-17 16:00N 40°12' E 002°43'1121.0
2017-Apr-17 15:30N 40°03' E 002°36'1020.8
2017-Apr-17 15:00N 39°54' E 002°29'2120.8
2017-Apr-17 14:00N 39°36' E 002°15'1019.8
2017-Apr-17 13:30N 39°28' E 002°22'918.9
2017-Apr-17 13:00N 39°23' E 002°32'917.8
2017-Apr-17 12:30N 39°31' E 002°39'2 4.1
2017-Apr-17 12:00N 39°33' E 002°38'0 0.0
2017-Apr-17 11:30N 39°33' E 002°38'0 0.0
2017-Apr-17 10:59N 39°33' E 002°38'0 0.0
2017-Apr-17 10:29N 39°33' E 002°38'0 0.0
2017-Apr-17 09:58N 39°33' E 002°38'0 0.0
2017-Apr-17 09:28N 39°33' E 002°38'0 0.0
2017-Apr-17 08:58N 39°33' E 002°38'0 0.0
2017-Apr-17 08:28N 39°33' E 002°38'0 0.0
2017-Apr-17 07:58N 39°33' E 002°38'0 0.0
2017-Apr-17 07:28N 39°33' E 002°38'0 0.0
2017-Apr-17 06:58N 39°33' E 002°38'0 0.0
2017-Apr-17 06:30N 39°33' E 002°38'0 0.0
2017-Apr-17 05:59N 39°33' E 002°38'0 0.0
2017-Apr-17 05:30N 39°33' E 002°38'1 1.2
2017-Apr-17 05:00N 39°33' E 002°39'3 6.0
2017-Apr-17 04:30N 39°30' E 002°39'611.3
2017-Apr-17 04:00N 39°25' E 002°35'511.1
2017-Apr-17 03:30N 39°24' E 002°28'612.0
2017-Apr-17 03:00N 39°28' E 002°22'612.0
2017-Apr-17 02:30N 39°32' E 002°16'611.6
2017-Apr-17 02:00N 39°37' E 002°13'611.9
2017-Apr-17 01:29N 39°43' E 002°13'611.8
2017-Apr-17 01:00N 39°49' E 002°13'611.7
2017-Apr-17 00:30N 39°54' E 002°13'611.6
2017-Apr-17 00:00N 40°00' E 002°15'612.1
2017-Apr-16 23:30N 40°06' E 002°13'612.4
2017-Apr-16 23:00N 40°12' E 002°12'612.6
2017-Apr-16 22:30N 40°18' E 002°11'612.5
2017-Apr-16 22:00N 40°25' E 002°11'612.5
2017-Apr-16 21:30N 40°31' E 002°11'612.3
2017-Apr-16 21:00N 40°37' E 002°12'611.9
2017-Apr-16 20:30N 40°43' E 002°11'611.5
2017-Apr-16 20:00N 40°49' E 002°11'611.8
2017-Apr-16 19:30N 40°55' E 002°11'612.0
2017-Apr-16 19:00N 41°01' E 002°11'612.4
2017-Apr-16 18:30N 41°07' E 002°11'612.2
2017-Apr-16 18:00N 41°13' E 002°11'611.9
2017-Apr-16 17:30N 41°19' E 002°10'3 5.5
2017-Apr-16 17:01N 41°22' E 002°11'0 0.0
2017-Apr-16 16:28N 41°22' E 002°11'0 0.0
2017-Apr-16 15:58N 41°22' E 002°11'0 0.0
2017-Apr-16 15:28N 41°22' E 002°11'0 0.0
2017-Apr-16 14:58N 41°22' E 002°11'0 0.0
2017-Apr-16 14:28N 41°22' E 002°11'0 0.0
2017-Apr-16 12:46N 41°22' E 002°11'0 0.0
2017-Apr-16 12:28N 41°22' E 002°11'0 0.0
2017-Apr-16 11:58N 41°22' E 002°11'0 0.0
2017-Apr-16 11:28N 41°22' E 002°11'1 1.2
2017-Apr-16 11:01N 41°21' E 002°10'3 4.6
2017-Apr-16 10:27N 41°19' E 002°10'710.9
2017-Apr-16 09:48N 41°15' E 002°19'818.5
2017-Apr-16 09:22N 41°19' E 002°28'718.4
2017-Apr-16 09:00N 41°23' E 002°36'23518.6
2017-Apr-15 20:20N 43°18' E 007°13'919.6
2017-Apr-15 19:53N 43°23' E 007°23'919.8
2017-Apr-15 19:25N 43°28' E 007°33'919.6
2017-Apr-15 18:59N 43°34' E 007°43'2619.4
2017-Apr-15 17:39N 43°49' E 008°11'319.5
2017-Apr-15 17:30N 43°51' E 008°14'919.2
2017-Apr-15 17:00N 43°58' E 008°22'1019.0
2017-Apr-15 16:30N 44°07' E 008°29'917.9
2017-Apr-15 16:00N 44°15' E 008°34'510.2
2017-Apr-15 15:30N 44°19' E 008°30'1 1.5
2017-Apr-15 14:58N 44°19' E 008°29'0 0.0
2017-Apr-15 14:28N 44°19' E 008°29'0 0.0
2017-Apr-15 13:28N 44°19' E 008°29'0 0.0
2017-Apr-15 12:58N 44°19' E 008°29'0 0.0
2017-Apr-15 12:28N 44°19' E 008°29'0 0.0
2017-Apr-15 11:55N 44°19' E 008°29'0 0.0
2017-Apr-15 11:28N 44°19' E 008°29'0 0.0
2017-Apr-15 10:58N 44°19' E 008°29'0 0.0
2017-Apr-15 10:28N 44°19' E 008°29'0 0.0
2017-Apr-15 09:58N 44°19' E 008°29'0 0.0
2017-Apr-15 09:25N 44°19' E 008°29'0 0.0
2017-Apr-15 08:55N 44°19' E 008°29'0 0.0
2017-Apr-15 08:28N 44°19' E 008°29'0 0.0
2017-Apr-15 07:58N 44°19' E 008°29'0 0.0
2017-Apr-15 07:25N 44°19' E 008°29'0 0.0
2017-Apr-15 06:55N 44°19' E 008°29'0 0.0
2017-Apr-15 06:27N 44°19' E 008°29'0 0.0
2017-Apr-15 06:01N 44°19' E 008°29'0 0.6
2017-Apr-15 05:30N 44°19' E 008°30'2 3.8
2017-Apr-15 05:00N 44°18' E 008°32'510.1
2017-Apr-15 04:30N 44°13' E 008°33'612.8
2017-Apr-15 04:00N 44°07' E 008°29'612.5
2017-Apr-15 03:30N 44°02' E 008°25'612.2
2017-Apr-15 02:59N 43°56' E 008°20'  

Dump ship's entire track history